createdAt,value
2019-05-03T05:00:35.842Z,8.70
2019-05-03T05:03:06.054Z,9.00
2019-05-03T05:05:36.842Z,9.10
2019-05-03T05:08:07.209Z,8.90
2019-05-03T05:10:37.593Z,9.00
2019-05-03T05:13:08.003Z,9.20
2019-05-03T05:15:45.991Z,9.40
2019-05-03T05:18:30.724Z,9.30
2019-05-03T05:21:12.581Z,9.40
2019-05-03T05:24:05.287Z,9.70
2019-05-03T05:26:59.932Z,9.60
2019-05-03T05:29:32.193Z,9.60
2019-05-03T05:32:02.643Z,9.70
2019-05-03T05:34:34.875Z,10.00
2019-05-03T05:37:05.450Z,10.00
2019-05-03T05:39:36.031Z,9.90
2019-05-03T05:42:06.373Z,10.00
2019-05-03T05:44:57.196Z,9.80
2019-05-03T05:47:58.140Z,9.60
2019-05-03T05:50:48.968Z,9.50
2019-05-03T05:53:19.288Z,9.50
2019-05-03T05:56:11.484Z,9.30
2019-05-03T05:58:52.201Z,9.40
2019-05-03T06:01:29.108Z,9.50
2019-05-03T06:03:59.497Z,9.50
2019-05-03T06:06:40.028Z,9.60
2019-05-03T06:09:35.211Z,9.90
2019-05-03T06:12:16.733Z,10.00
2019-05-03T06:14:51.492Z,10.20
2019-05-03T06:17:34.805Z,10.30
2019-05-03T06:20:35.604Z,10.30
2019-05-03T06:23:10.722Z,10.20
2019-05-03T06:25:42.468Z,10.50
2019-05-03T06:28:25.068Z,10.10
2019-05-03T06:31:08.184Z,10.20
2019-05-03T06:33:38.620Z,10.40
2019-05-03T06:36:09.470Z,10.20
2019-05-03T06:38:42.162Z,10.30
2019-05-03T06:41:11.736Z,10.00
2019-05-03T06:43:45.061Z,10.10
2019-05-03T06:46:16.416Z,10.20
2019-05-03T06:48:46.065Z,10.30
2019-05-03T06:51:20.016Z,10.70
2019-05-03T06:53:50.654Z,10.90
2019-05-03T06:56:24.992Z,11.30
2019-05-03T06:58:52.349Z,11.40
2019-05-03T07:01:51.072Z,11.50
2019-05-03T07:04:25.176Z,11.60
2019-05-03T07:07:28.080Z,11.70
2019-05-03T07:10:06.603Z,11.70
2019-05-03T07:12:54.758Z,11.90
2019-05-03T07:15:25.426Z,12.10
2019-05-03T07:17:55.885Z,11.90
2019-05-03T07:20:26.459Z,12.40
2019-05-03T07:22:56.922Z,12.20
2019-05-03T07:25:27.284Z,12.60
2019-05-03T07:28:20.175Z,12.50
2019-05-03T07:30:50.522Z,12.40
2019-05-03T07:33:31.920Z,11.90
2019-05-03T07:36:02.270Z,11.90
2019-05-03T07:38:32.659Z,12.20
2019-05-03T07:41:05.313Z,12.20
2019-05-03T07:43:36.280Z,12.50
2019-05-03T07:46:06.637Z,12.50
2019-05-03T07:48:37.022Z,12.20
2019-05-03T07:51:07.623Z,12.80
2019-05-03T07:53:37.996Z,13.20
2019-05-03T07:56:12.022Z,13.30
2019-05-03T07:58:46.189Z,13.60
2019-05-03T08:01:30.950Z,13.10
2019-05-03T08:04:01.397Z,13.10
2019-05-03T08:06:31.766Z,13.20
2019-05-03T08:09:02.269Z,13.40
2019-05-03T08:11:32.637Z,13.10
2019-05-03T08:14:04.846Z,13.70
2019-05-03T08:16:35.657Z,13.50
2019-05-03T08:19:06.351Z,13.60
2019-05-03T08:21:38.405Z,13.80
2019-05-03T08:24:09.368Z,13.50
2019-05-03T08:26:39.683Z,13.50
2019-05-03T08:29:16.071Z,13.30
2019-05-03T08:32:07.302Z,13.30
2019-05-03T08:35:12.748Z,13.70
2019-05-03T08:37:47.545Z,13.60
2019-05-03T08:40:18.571Z,12.90
2019-05-03T08:42:51.599Z,12.40
2019-05-03T08:45:22.196Z,12.00
2019-05-03T08:47:52.692Z,11.70
2019-05-03T08:50:25.497Z,11.80
2019-05-03T08:52:55.844Z,11.40
2019-05-03T08:55:26.530Z,11.40
2019-05-03T08:57:56.949Z,11.90
2019-05-03T09:00:29.127Z,12.10
2019-05-03T09:02:59.573Z,12.00
2019-05-03T09:05:50.825Z,11.90
2019-05-03T09:08:21.230Z,11.50
2019-05-03T09:11:05.531Z,12.20
2019-05-03T09:13:52.253Z,12.80
2019-05-03T09:16:22.695Z,12.60
2019-05-03T09:18:54.837Z,12.90
2019-05-03T09:21:25.618Z,13.20
2019-05-03T09:23:56.266Z,12.80
2019-05-03T09:26:29.235Z,13.30
2019-05-03T09:28:58.779Z,12.90
2019-05-03T09:31:29.294Z,13.20
2019-05-03T09:33:59.705Z,13.40
2019-05-03T09:36:30.154Z,14.00
2019-05-03T09:39:00.470Z,14.20
2019-05-03T09:41:31.156Z,14.00
2019-05-03T09:44:04.775Z,14.30
2019-05-03T09:46:35.476Z,14.50
2019-05-03T09:49:13.453Z,14.50
2019-05-03T09:51:37.996Z,14.30
2019-05-03T09:54:22.482Z,13.80
2019-05-03T09:56:59.918Z,13.20
2019-05-03T09:59:31.066Z,12.60
2019-05-03T10:02:04.456Z,12.20
2019-05-03T10:04:36.639Z,12.00
2019-05-03T10:07:06.905Z,11.70
2019-05-03T10:09:37.311Z,11.80
2019-05-03T10:12:11.873Z,11.90
2019-05-03T10:14:42.210Z,12.20
2019-05-03T10:17:45.806Z,12.60
2019-05-03T10:20:17.959Z,12.30
2019-05-03T10:23:06.227Z,12.30
2019-05-03T10:25:39.931Z,11.30
2019-05-03T10:28:09.229Z,11.40
2019-05-03T10:30:39.632Z,11.00
2019-05-03T10:33:25.975Z,11.30
2019-05-03T10:35:56.695Z,11.30
2019-05-03T10:38:27.230Z,11.10
2019-05-03T10:40:57.797Z,11.10
2019-05-03T10:43:30.585Z,11.10
2019-05-03T10:46:00.332Z,11.10
2019-05-03T10:48:30.719Z,10.90
2019-05-03T10:51:01.192Z,10.80
2019-05-03T10:53:35.899Z,10.20
2019-05-03T10:56:23.205Z,9.90
2019-05-03T10:59:26.317Z,9.30
2019-05-03T11:02:15.322Z,8.90
2019-05-03T11:04:46.230Z,8.60
2019-05-03T11:07:16.751Z,8.70
2019-05-03T11:09:52.235Z,8.90
2019-05-03T11:12:19.261Z,9.10
2019-05-03T11:14:51.156Z,9.10
2019-05-03T11:17:21.547Z,9.20
2019-05-03T11:19:52.034Z,9.30
2019-05-03T11:22:22.517Z,9.20
2019-05-03T11:24:58.762Z,9.30
2019-05-03T11:27:38.564Z,9.70
2019-05-03T11:30:09.759Z,10.20
2019-05-03T11:32:51.959Z,10.40
2019-05-03T11:35:28.645Z,10.40
2019-05-03T11:38:15.084Z,10.20
2019-05-03T11:40:45.858Z,10.30
2019-05-03T11:43:18.682Z,10.90
2019-05-03T11:45:51.081Z,11.10
2019-05-03T11:48:21.538Z,11.60
2019-05-03T11:50:54.534Z,12.00
2019-05-03T11:53:25.147Z,12.60
2019-05-03T11:55:55.791Z,12.80
2019-05-03T11:58:27.341Z,13.00
2019-05-03T12:01:15.761Z,13.30
2019-05-03T12:03:44.887Z,13.20
2019-05-03T12:06:15.659Z,13.00
2019-05-03T12:08:46.397Z,13.10
2019-05-03T12:11:16.934Z,12.90
2019-05-03T12:14:01.439Z,13.10
2019-05-03T12:16:26.722Z,13.70
2019-05-03T12:18:54.017Z,14.10
2019-05-03T12:21:27.459Z,14.70
2019-05-03T12:23:57.045Z,14.40
2019-05-03T12:26:40.777Z,14.40
2019-05-03T12:29:00.082Z,14.20
2019-05-03T12:31:37.982Z,14.10
2019-05-03T12:34:02.659Z,13.20
2019-05-03T12:36:36.779Z,11.90
2019-05-03T12:39:22.884Z,11.10
2019-05-03T12:41:38.671Z,10.80
2019-05-03T12:44:09.103Z,10.40
2019-05-03T12:46:39.804Z,10.40
2019-05-03T12:49:10.267Z,10.40
2019-05-03T12:51:40.737Z,10.50
2019-05-03T12:54:11.187Z,10.90
2019-05-03T12:56:41.742Z,11.10
2019-05-03T12:59:35.879Z,11.10
2019-05-03T13:02:12.613Z,11.60
2019-05-03T13:04:44.677Z,12.60
2019-05-03T13:07:39.120Z,12.60
2019-05-03T13:10:10.189Z,13.50
2019-05-03T13:12:50.630Z,13.80
2019-05-03T13:15:14.434Z,16.00
2019-05-03T13:17:44.949Z,15.30
2019-05-03T13:20:16.608Z,15.00
2019-05-03T13:22:46.977Z,17.30
2019-05-03T13:25:17.613Z,18.60
2019-05-03T13:27:48.003Z,18.90
2019-05-03T13:30:18.732Z,20.80
2019-05-03T13:32:49.046Z,21.20
2019-05-03T13:35:19.406Z,17.50
2019-05-03T13:37:49.821Z,16.60
2019-05-03T13:40:20.334Z,15.90
2019-05-03T13:42:57.111Z,14.90
2019-05-03T13:45:35.778Z,14.30
2019-05-03T13:48:06.854Z,14.30
2019-05-03T13:50:37.256Z,14.50
2019-05-03T13:53:07.697Z,14.50
2019-05-03T13:55:38.137Z,14.30
2019-05-03T13:58:08.563Z,14.20
2019-05-03T14:00:39.140Z,13.70
2019-05-03T14:03:09.685Z,13.40
2019-05-03T14:05:40.103Z,13.40
2019-05-03T14:08:10.527Z,13.20
2019-05-03T14:10:41.362Z,13.30
2019-05-03T14:13:11.773Z,13.30
2019-05-03T14:15:42.602Z,13.20
2019-05-03T14:18:15.144Z,13.10
2019-05-03T14:21:05.035Z,13.10
2019-05-03T14:23:53.720Z,13.00
2019-05-03T14:26:24.579Z,12.90
2019-05-03T14:28:57.833Z,12.80
2019-05-03T14:31:28.503Z,12.50
2019-05-03T14:33:58.926Z,12.10
2019-05-03T14:36:29.462Z,11.70
2019-05-03T14:38:59.869Z,11.10
2019-05-03T14:41:30.310Z,10.70
2019-05-03T14:44:02.090Z,9.70
2019-05-03T14:46:33.472Z,9.20
2019-05-03T14:49:05.503Z,9.00
2019-05-03T14:51:36.299Z,8.70
2019-05-03T14:54:07.819Z,8.70
2019-05-03T14:56:53.528Z,8.40
2019-05-03T14:59:58.019Z,8.20
2019-05-03T15:02:58.028Z,8.00
2019-05-03T15:05:28.628Z,8.30
2019-05-03T15:07:59.072Z,8.80
2019-05-03T15:10:29.553Z,9.30
2019-05-03T15:13:00.026Z,9.80
2019-05-03T15:15:30.593Z,10.40
2019-05-03T15:18:01.064Z,11.40
2019-05-03T15:20:31.652Z,12.50
2019-05-03T15:23:02.526Z,14.10
2019-05-03T15:25:34.573Z,14.00
2019-05-03T15:28:06.176Z,13.20
2019-05-03T15:30:36.690Z,12.90
2019-05-03T15:33:07.249Z,12.20
2019-05-03T15:35:46.557Z,12.10
2019-05-03T15:38:16.151Z,12.20
2019-05-03T15:40:46.562Z,12.80
2019-05-03T15:43:28.772Z,13.10
2019-05-03T15:46:35.597Z,12.80
2019-05-03T15:49:06.073Z,12.90
2019-05-03T15:51:36.475Z,14.00
2019-05-03T15:54:07.002Z,13.60
2019-05-03T15:56:37.385Z,13.40
2019-05-03T15:59:07.808Z,13.70
2019-05-03T16:01:38.219Z,14.30
2019-05-03T16:04:28.010Z,14.10
2019-05-03T16:06:58.467Z,12.80
2019-05-03T16:09:35.129Z,12.30
2019-05-03T16:12:05.364Z,11.80
2019-05-03T16:14:35.834Z,11.60
2019-05-03T16:17:06.583Z,11.40
2019-05-03T16:19:36.995Z,11.10
2019-05-03T16:22:07.420Z,10.80
2019-05-03T16:24:38.819Z,10.50
2019-05-03T16:27:33.515Z,10.30
2019-05-03T16:30:08.304Z,10.30
2019-05-03T16:32:38.711Z,10.00
2019-05-03T16:35:09.110Z,9.90
2019-05-03T16:37:39.547Z,9.80
2019-05-03T16:40:10.060Z,9.80
2019-05-03T16:42:40.493Z,9.60
2019-05-03T16:45:11.190Z,9.60
2019-05-03T16:47:41.623Z,9.40
2019-05-03T16:50:15.126Z,9.30
2019-05-03T16:52:45.626Z,9.10
2019-05-03T16:55:16.448Z,8.90
2019-05-03T16:57:46.966Z,8.70
2019-05-03T17:00:18.075Z,8.60
2019-05-03T17:02:48.475Z,8.60
2019-05-03T17:05:52.852Z,8.50
2019-05-03T17:08:42.106Z,8.30
2019-05-03T17:11:14.818Z,8.20
2019-05-03T17:13:47.622Z,8.10
2019-05-03T17:16:17.552Z,8.10
2019-05-03T17:18:48.052Z,8.10
2019-05-03T17:21:18.980Z,8.10
2019-05-03T17:23:49.413Z,8.00
2019-05-03T17:26:19.858Z,7.90
2019-05-03T17:28:50.307Z,7.70
2019-05-03T17:31:20.654Z,7.60
2019-05-03T17:33:53.859Z,7.50
2019-05-03T17:36:24.917Z,7.30
2019-05-03T17:38:58.415Z,7.20
2019-05-03T17:41:46.335Z,7.10
2019-05-03T17:44:24.118Z,7.00
2019-05-03T17:46:54.912Z,6.90
2019-05-03T17:49:25.440Z,6.90
2019-05-03T17:52:14.707Z,6.80
2019-05-03T17:55:05.001Z,6.70
2019-05-03T17:57:55.036Z,6.70
2019-05-03T18:00:46.710Z,6.50
2019-05-03T18:03:18.093Z,6.40
2019-05-03T18:06:02.247Z,6.50
2019-05-03T18:09:09.589Z,6.40
2019-05-03T18:11:42.428Z,6.40
2019-05-03T18:14:14.648Z,6.00
2019-05-03T18:16:46.252Z,6.30
2019-05-03T18:19:16.640Z,6.30
2019-05-03T18:21:47.230Z,6.20
2019-05-03T18:24:17.654Z,6.20
2019-05-03T18:26:48.177Z,6.10
2019-05-03T18:29:25.432Z,6.00
2019-05-03T18:31:56.093Z,5.90
2019-05-03T18:34:26.512Z,5.80
2019-05-03T18:36:56.934Z,5.90
2019-05-03T18:39:27.707Z,5.60
2019-05-03T18:41:58.236Z,5.60
2019-05-03T18:44:38.736Z,5.70
2019-05-03T18:47:14.617Z,5.50
2019-05-03T18:49:44.872Z,5.40
2019-05-03T18:52:18.804Z,5.50
2019-05-03T18:54:49.520Z,5.40
2019-05-03T18:57:21.434Z,5.20
2019-05-03T18:59:51.825Z,5.10
2019-05-03T19:02:24.264Z,5.30
2019-05-03T19:04:56.096Z,5.30
2019-05-03T19:07:45.236Z,4.80
2019-05-03T19:10:22.174Z,4.80
2019-05-03T19:12:59.172Z,4.70
2019-05-03T19:15:31.409Z,4.70
2019-05-03T19:18:06.116Z,4.60
2019-05-03T19:20:36.672Z,4.50
2019-05-03T19:23:07.601Z,4.50
2019-05-03T19:25:46.983Z,4.40
2019-05-03T19:28:10.179Z,4.50
2019-05-03T19:30:44.287Z,4.50
2019-05-03T19:33:14.342Z,4.30
2019-05-03T19:35:44.898Z,4.40
2019-05-03T19:38:15.394Z,4.30
2019-05-03T19:40:46.527Z,4.30
2019-05-03T19:43:17.323Z,4.30
2019-05-03T19:45:47.880Z,4.30
2019-05-03T19:48:18.386Z,4.40
2019-05-03T19:50:48.931Z,4.60
2019-05-03T19:53:38.200Z,4.60
2019-05-03T19:56:09.066Z,4.90
2019-05-03T19:58:39.578Z,4.90
2019-05-03T20:01:38.093Z,5.00
2019-05-03T20:04:30.599Z,4.90
2019-05-03T20:07:19.861Z,5.20
2019-05-03T20:09:50.789Z,5.20
2019-05-03T20:12:21.361Z,5.40
2019-05-03T20:14:51.778Z,5.50
2019-05-03T20:17:22.264Z,5.40
2019-05-03T20:19:54.363Z,5.50
2019-05-03T20:22:25.331Z,5.60
2019-05-03T20:24:55.721Z,5.60
2019-05-03T20:27:26.285Z,5.60
2019-05-03T20:29:56.683Z,5.70
2019-05-03T20:32:34.625Z,5.70
2019-05-03T20:35:16.571Z,5.70
2019-05-03T20:37:37.714Z,5.70
2019-05-03T20:40:10.444Z,5.60
2019-05-03T20:42:59.716Z,5.80
2019-05-03T20:45:50.993Z,5.60
2019-05-03T20:48:24.899Z,5.70
2019-05-03T20:50:55.159Z,5.60
2019-05-03T20:53:25.830Z,5.70
2019-05-03T20:55:56.196Z,5.70
2019-05-03T20:58:26.595Z,5.70
2019-05-03T21:00:57.089Z,5.70
2019-05-03T21:03:27.499Z,5.60
2019-05-03T21:05:58.876Z,5.60
2019-05-03T21:08:29.371Z,5.60
2019-05-03T21:11:00.419Z,5.60
2019-05-03T21:13:51.592Z,5.60
2019-05-03T21:16:34.695Z,5.60
2019-05-03T21:19:24.640Z,5.40
2019-05-03T21:22:08.096Z,5.40
2019-05-03T21:25:03.377Z,5.30
2019-05-03T21:27:35.085Z,5.40
2019-05-03T21:30:06.315Z,5.10
2019-05-03T21:32:50.036Z,4.90
2019-05-03T21:35:20.670Z,4.90
2019-05-03T21:37:51.081Z,4.80
2019-05-03T21:40:21.453Z,5.00
2019-05-03T21:42:51.803Z,4.80
2019-05-03T21:45:26.985Z,4.80
2019-05-03T21:48:05.038Z,4.50
2019-05-03T21:51:57.900Z,4.50
2019-05-03T21:54:28.232Z,4.40
2019-05-03T21:56:58.499Z,4.50
2019-05-03T21:59:28.885Z,4.20
2019-05-03T22:01:59.469Z,4.30
2019-05-03T22:04:29.869Z,4.00
2019-05-03T22:07:00.194Z,4.10
2019-05-03T22:09:30.706Z,4.00
2019-05-03T22:12:01.489Z,3.80
2019-05-03T22:14:37.349Z,3.80
2019-05-03T22:17:25.370Z,3.60
2019-05-03T22:20:00.072Z,3.50
2019-05-03T22:22:37.040Z,3.60
2019-05-03T22:25:08.380Z,3.40
2019-05-03T22:27:56.861Z,3.50
2019-05-03T22:30:27.172Z,3.20
2019-05-03T22:32:57.458Z,3.20
2019-05-03T22:35:38.411Z,3.40
2019-05-03T22:38:09.460Z,3.10
2019-05-03T22:40:39.936Z,3.00
2019-05-03T22:43:10.617Z,3.00
2019-05-03T22:45:40.992Z,3.10
2019-05-03T22:48:11.452Z,3.20
2019-05-03T22:50:41.830Z,2.80
2019-05-03T22:53:12.392Z,2.70
2019-05-03T22:55:45.013Z,2.90
2019-05-03T22:58:15.374Z,2.70
2019-05-03T23:00:47.478Z,2.80
2019-05-03T23:03:17.945Z,2.60
2019-05-03T23:05:57.890Z,2.80
2019-05-03T23:08:28.219Z,2.90
2019-05-03T23:11:05.227Z,2.90
2019-05-03T23:13:36.182Z,3.00
2019-05-03T23:16:06.726Z,3.00
2019-05-03T23:18:37.224Z,3.00
2019-05-03T23:21:12.846Z,3.10
2019-05-03T23:23:49.528Z,3.40
2019-05-03T23:26:20.005Z,3.40
2019-05-03T23:28:50.283Z,3.40
2019-05-03T23:31:20.721Z,3.40
2019-05-03T23:33:50.986Z,3.60
2019-05-03T23:36:32.771Z,3.30
2019-05-03T23:38:54.658Z,3.30
2019-05-03T23:41:25.528Z,3.40
2019-05-03T23:43:55.876Z,3.50
2019-05-03T23:46:32.301Z,3.60
2019-05-03T23:49:02.924Z,3.80
2019-05-03T23:51:55.151Z,3.90
2019-05-03T23:54:34.084Z,3.90
2019-05-03T23:57:04.444Z,4.00
2019-05-03T23:59:57.146Z,4.00
